sensor_id;sensor_type;location;lat;lon;timestamp;P1;durP1;ratioP1;P2;durP2;ratioP2
28192;SDS011;15473;50.840;3.396;2022-09-09T00:02:15;5.30;;;1.12;;
28192;SDS011;15473;50.840;3.396;2022-09-09T00:04:44;3.33;;;1.50;;
28192;SDS011;15473;50.840;3.396;2022-09-09T00:07:33;3.12;;;1.05;;
28192;SDS011;15473;50.840;3.396;2022-09-09T00:10:22;2.72;;;1.25;;
28192;SDS011;15473;50.840;3.396;2022-09-09T00:15:47;5.08;;;1.47;;
28192;SDS011;15473;50.840;3.396;2022-09-09T00:18:50;2.65;;;1.00;;
28192;SDS011;15473;50.840;3.396;2022-09-09T00:21:19;3.25;;;1.10;;
28192;SDS011;15473;50.840;3.396;2022-09-09T00:24:04;1.98;;;1.12;;
28192;SDS011;15473;50.840;3.396;2022-09-09T00:26:48;4.03;;;1.07;;
28192;SDS011;15473;50.840;3.396;2022-09-09T00:31:51;3.30;;;1.15;;
28192;SDS011;15473;50.840;3.396;2022-09-09T00:34:27;2.70;;;1.20;;
28192;SDS011;15473;50.840;3.396;2022-09-09T00:36:58;6.83;;;1.67;;
28192;SDS011;15473;50.840;3.396;2022-09-09T00:39:36;5.80;;;1.40;;
28192;SDS011;15473;50.840;3.396;2022-09-09T00:42:36;4.70;;;1.20;;
28192;SDS011;15473;50.840;3.396;2022-09-09T00:48:02;2.85;;;1.30;;
28192;SDS011;15473;50.840;3.396;2022-09-09T00:50:44;2.75;;;1.07;;
28192;SDS011;15473;50.840;3.396;2022-09-09T00:56:26;3.02;;;1.00;;
28192;SDS011;15473;50.840;3.396;2022-09-09T01:01:44;2.77;;;1.00;;
28192;SDS011;15473;50.840;3.396;2022-09-09T01:04:16;1.40;;;1.12;;
28192;SDS011;15473;50.840;3.396;2022-09-09T01:06:49;2.20;;;0.90;;
28192;SDS011;15473;50.840;3.396;2022-09-09T01:09:22;2.90;;;1.10;;
28192;SDS011;15473;50.840;3.396;2022-09-09T01:20:08;4.17;;;1.20;;
28192;SDS011;15473;50.840;3.396;2022-09-09T01:28:21;2.98;;;1.10;;
28192;SDS011;15473;50.840;3.396;2022-09-09T01:30:53;6.08;;;1.32;;
28192;SDS011;15473;50.840;3.396;2022-09-09T01:33:44;7.22;;;1.55;;
28192;SDS011;15473;50.840;3.396;2022-09-09T01:36:17;4.72;;;1.70;;
28192;SDS011;15473;50.840;3.396;2022-09-09T01:39:05;5.97;;;1.20;;
28192;SDS011;15473;50.840;3.396;2022-09-09T01:41:35;1.37;;;1.22;;
28192;SDS011;15473;50.840;3.396;2022-09-09T01:44:06;5.60;;;1.40;;
28192;SDS011;15473;50.840;3.396;2022-09-09T01:46:37;7.25;;;1.72;;
28192;SDS011;15473;50.840;3.396;2022-09-09T01:49:07;2.58;;;1.17;;
28192;SDS011;15473;50.840;3.396;2022-09-09T01:51:38;2.77;;;1.10;;
28192;SDS011;15473;50.840;3.396;2022-09-09T01:54:11;2.87;;;1.40;;
28192;SDS011;15473;50.840;3.396;2022-09-09T02:02:30;9.80;;;1.65;;
28192;SDS011;15473;50.840;3.396;2022-09-09T02:08:00;6.12;;;1.45;;
28192;SDS011;15473;50.840;3.396;2022-09-09T02:10:38;2.22;;;1.45;;
28192;SDS011;15473;50.840;3.396;2022-09-09T02:13:16;1.47;;;1.30;;
28192;SDS011;15473;50.840;3.396;2022-09-09T02:18:48;4.25;;;1.00;;
28192;SDS011;15473;50.840;3.396;2022-09-09T02:21:33;4.53;;;1.50;;
28192;SDS011;15473;50.840;3.396;2022-09-09T02:24:05;9.00;;;1.80;;
28192;SDS011;15473;50.840;3.396;2022-09-09T02:26:39;3.72;;;1.50;;
28192;SDS011;15473;50.840;3.396;2022-09-09T02:29:14;12.47;;;1.52;;
28192;SDS011;15473;50.840;3.396;2022-09-09T02:31:47;4.10;;;1.32;;
28192;SDS011;15473;50.840;3.396;2022-09-09T02:34:20;10.32;;;2.12;;
28192;SDS011;15473;50.840;3.396;2022-09-09T02:36:52;6.47;;;1.50;;
28192;SDS011;15473;50.840;3.396;2022-09-09T02:39:43;11.43;;;2.00;;
28192;SDS011;15473;50.840;3.396;2022-09-09T02:42:13;8.88;;;3.52;;
28192;SDS011;15473;50.840;3.396;2022-09-09T02:44:43;5.20;;;1.82;;
28192;SDS011;15473;50.840;3.396;2022-09-09T02:53:10;6.10;;;1.53;;
28192;SDS011;15473;50.840;3.396;2022-09-09T02:56:13;5.28;;;2.20;;
28192;SDS011;15473;50.840;3.396;2022-09-09T02:59:07;11.63;;;1.67;;
28192;SDS011;15473;50.840;3.396;2022-09-09T03:01:34;10.03;;;1.52;;
28192;SDS011;15473;50.840;3.396;2022-09-09T03:04:04;11.90;;;1.85;;
28192;SDS011;15473;50.840;3.396;2022-09-09T03:06:34;8.85;;;1.90;;
28192;SDS011;15473;50.840;3.396;2022-09-09T03:09:04;5.35;;;1.72;;
28192;SDS011;15473;50.840;3.396;2022-09-09T03:11:36;6.83;;;2.25;;
28192;SDS011;15473;50.840;3.396;2022-09-09T03:14:07;4.87;;;1.55;;
28192;SDS011;15473;50.840;3.396;2022-09-09T03:16:38;8.53;;;1.52;;
28192;SDS011;15473;50.840;3.396;2022-09-09T03:19:10;7.90;;;1.98;;
28192;SDS011;15473;50.840;3.396;2022-09-09T03:21:42;6.70;;;1.90;;
28192;SDS011;15473;50.840;3.396;2022-09-09T03:24:12;4.37;;;1.62;;
28192;SDS011;15473;50.840;3.396;2022-09-09T03:26:43;10.98;;;1.80;;
28192;SDS011;15473;50.840;3.396;2022-09-09T03:29:13;8.90;;;1.92;;
28192;SDS011;15473;50.840;3.396;2022-09-09T03:31:48;11.75;;;2.10;;
28192;SDS011;15473;50.840;3.396;2022-09-09T03:34:19;13.13;;;1.87;;
28192;SDS011;15473;50.840;3.396;2022-09-09T03:36:49;5.70;;;1.60;;
28192;SDS011;15473;50.840;3.396;2022-09-09T03:39:19;11.40;;;2.25;;
28192;SDS011;15473;50.840;3.396;2022-09-09T03:41:49;4.62;;;1.50;;
28192;SDS011;15473;50.840;3.396;2022-09-09T03:44:19;11.48;;;2.00;;
28192;SDS011;15473;50.840;3.396;2022-09-09T03:46:49;7.70;;;2.42;;
28192;SDS011;15473;50.840;3.396;2022-09-09T03:49:19;12.18;;;1.67;;
28192;SDS011;15473;50.840;3.396;2022-09-09T03:51:56;5.12;;;2.47;;
28192;SDS011;15473;50.840;3.396;2022-09-09T03:54:27;8.88;;;2.02;;
28192;SDS011;15473;50.840;3.396;2022-09-09T03:56:57;4.65;;;1.62;;
28192;SDS011;15473;50.840;3.396;2022-09-09T03:59:27;5.55;;;2.00;;
28192;SDS011;15473;50.840;3.396;2022-09-09T04:01:57;5.80;;;1.90;;
28192;SDS011;15473;50.840;3.396;2022-09-09T04:04:27;9.20;;;1.40;;
28192;SDS011;15473;50.840;3.396;2022-09-09T04:06:57;11.28;;;1.75;;
28192;SDS011;15473;50.840;3.396;2022-09-09T04:09:27;5.17;;;1.65;;
28192;SDS011;15473;50.840;3.396;2022-09-09T04:11:57;8.03;;;1.62;;
28192;SDS011;15473;50.840;3.396;2022-09-09T04:14:27;9.75;;;1.92;;
28192;SDS011;15473;50.840;3.396;2022-09-09T04:16:57;10.80;;;1.87;;
28192;SDS011;15473;50.840;3.396;2022-09-09T04:19:28;8.53;;;1.77;;
28192;SDS011;15473;50.840;3.396;2022-09-09T04:21:58;9.83;;;2.00;;
28192;SDS011;15473;50.840;3.396;2022-09-09T04:24:28;18.02;;;2.30;;
28192;SDS011;15473;50.840;3.396;2022-09-09T04:26:58;9.73;;;2.17;;
28192;SDS011;15473;50.840;3.396;2022-09-09T04:29:28;7.35;;;1.55;;
28192;SDS011;15473;50.840;3.396;2022-09-09T04:31:58;5.15;;;1.77;;
28192;SDS011;15473;50.840;3.396;2022-09-09T04:34:28;10.08;;;1.80;;
28192;SDS011;15473;50.840;3.396;2022-09-09T04:36:58;9.38;;;2.15;;
28192;SDS011;15473;50.840;3.396;2022-09-09T04:39:29;8.45;;;1.57;;
28192;SDS011;15473;50.840;3.396;2022-09-09T04:41:59;9.53;;;2.00;;
28192;SDS011;15473;50.840;3.396;2022-09-09T04:44:30;7.58;;;2.02;;
28192;SDS011;15473;50.840;3.396;2022-09-09T04:47:00;14.38;;;2.30;;
28192;SDS011;15473;50.840;3.396;2022-09-09T04:49:30;12.80;;;2.60;;
28192;SDS011;15473;50.840;3.396;2022-09-09T04:52:00;8.48;;;1.75;;
28192;SDS011;15473;50.840;3.396;2022-09-09T04:54:30;7.53;;;1.98;;
28192;SDS011;15473;50.840;3.396;2022-09-09T04:57:00;13.13;;;2.00;;
28192;SDS011;15473;50.840;3.396;2022-09-09T04:59:30;9.70;;;2.17;;
28192;SDS011;15473;50.840;3.396;2022-09-09T05:02:00;12.65;;;2.35;;
28192;SDS011;15473;50.840;3.396;2022-09-09T05:04:31;11.68;;;2.72;;
28192;SDS011;15473;50.840;3.396;2022-09-09T05:07:01;6.70;;;1.98;;
28192;SDS011;15473;50.840;3.396;2022-09-09T05:09:31;7.20;;;1.87;;
28192;SDS011;15473;50.840;3.396;2022-09-09T05:12:01;8.13;;;1.75;;
28192;SDS011;15473;50.840;3.396;2022-09-09T05:14:32;8.95;;;2.00;;
28192;SDS011;15473;50.840;3.396;2022-09-09T05:17:04;9.95;;;2.10;;
28192;SDS011;15473;50.840;3.396;2022-09-09T05:19:34;7.78;;;1.90;;
28192;SDS011;15473;50.840;3.396;2022-09-09T05:22:10;13.25;;;2.02;;
28192;SDS011;15473;50.840;3.396;2022-09-09T05:24:40;6.50;;;1.75;;
28192;SDS011;15473;50.840;3.396;2022-09-09T05:27:11;9.98;;;2.47;;
28192;SDS011;15473;50.840;3.396;2022-09-09T05:29:41;8.30;;;1.87;;
28192;SDS011;15473;50.840;3.396;2022-09-09T05:32:12;7.47;;;1.75;;
28192;SDS011;15473;50.840;3.396;2022-09-09T05:34:44;5.90;;;2.02;;
28192;SDS011;15473;50.840;3.396;2022-09-09T05:37:16;5.33;;;2.25;;
28192;SDS011;15473;50.840;3.396;2022-09-09T05:39:46;13.80;;;2.20;;
28192;SDS011;15473;50.840;3.396;2022-09-09T05:42:18;9.43;;;2.10;;
28192;SDS011;15473;50.840;3.396;2022-09-09T05:44:55;9.40;;;2.05;;
28192;SDS011;15473;50.840;3.396;2022-09-09T05:47:26;12.13;;;2.05;;
28192;SDS011;15473;50.840;3.396;2022-09-09T05:49:56;10.85;;;2.08;;
28192;SDS011;15473;50.840;3.396;2022-09-09T05:52:27;6.30;;;1.92;;
28192;SDS011;15473;50.840;3.396;2022-09-09T05:54:57;8.70;;;2.12;;
28192;SDS011;15473;50.840;3.396;2022-09-09T05:57:34;10.55;;;2.52;;
28192;SDS011;15473;50.840;3.396;2022-09-09T06:00:08;11.18;;;1.72;;
28192;SDS011;15473;50.840;3.396;2022-09-09T06:02:58;18.10;;;3.52;;
28192;SDS011;15473;50.840;3.396;2022-09-09T06:05:28;14.95;;;2.25;;
28192;SDS011;15473;50.840;3.396;2022-09-09T06:07:58;8.95;;;2.50;;
28192;SDS011;15473;50.840;3.396;2022-09-09T06:10:29;8.43;;;2.15;;
28192;SDS011;15473;50.840;3.396;2022-09-09T06:13:00;10.65;;;2.27;;
28192;SDS011;15473;50.840;3.396;2022-09-09T06:15:30;8.93;;;2.17;;
28192;SDS011;15473;50.840;3.396;2022-09-09T06:18:00;8.65;;;2.50;;
28192;SDS011;15473;50.840;3.396;2022-09-09T06:20:30;5.65;;;2.25;;
28192;SDS011;15473;50.840;3.396;2022-09-09T06:23:00;6.60;;;1.62;;
28192;SDS011;15473;50.840;3.396;2022-09-09T06:25:30;6.83;;;2.02;;
28192;SDS011;15473;50.840;3.396;2022-09-09T06:28:02;13.43;;;2.30;;
28192;SDS011;15473;50.840;3.396;2022-09-09T06:30:32;12.13;;;2.25;;
28192;SDS011;15473;50.840;3.396;2022-09-09T06:33:02;9.33;;;2.50;;
28192;SDS011;15473;50.840;3.396;2022-09-09T06:35:32;13.15;;;2.80;;
28192;SDS011;15473;50.840;3.396;2022-09-09T06:38:03;9.75;;;2.12;;
28192;SDS011;15473;50.840;3.396;2022-09-09T06:40:34;12.68;;;2.50;;
28192;SDS011;15473;50.840;3.396;2022-09-09T06:43:05;10.88;;;1.90;;
28192;SDS011;15473;50.840;3.396;2022-09-09T06:45:35;5.28;;;1.70;;
28192;SDS011;15473;50.840;3.396;2022-09-09T06:48:05;8.40;;;2.30;;
28192;SDS011;15473;50.840;3.396;2022-09-09T06:50:37;9.43;;;1.90;;
28192;SDS011;15473;50.840;3.396;2022-09-09T06:53:07;8.83;;;2.33;;
28192;SDS011;15473;50.840;3.396;2022-09-09T06:55:37;9.50;;;2.00;;
28192;SDS011;15473;50.840;3.396;2022-09-09T06:58:15;8.60;;;1.77;;
28192;SDS011;15473;50.840;3.396;2022-09-09T07:00:45;9.70;;;2.92;;
28192;SDS011;15473;50.840;3.396;2022-09-09T07:03:15;8.08;;;1.87;;
28192;SDS011;15473;50.840;3.396;2022-09-09T07:05:53;7.85;;;1.90;;
28192;SDS011;15473;50.840;3.396;2022-09-09T07:08:24;16.15;;;2.25;;
28192;SDS011;15473;50.840;3.396;2022-09-09T07:10:55;6.22;;;1.90;;
28192;SDS011;15473;50.840;3.396;2022-09-09T07:13:36;12.75;;;2.60;;
28192;SDS011;15473;50.840;3.396;2022-09-09T07:16:10;11.83;;;1.98;;
28192;SDS011;15473;50.840;3.396;2022-09-09T07:18:42;6.05;;;2.55;;
28192;SDS011;15473;50.840;3.396;2022-09-09T07:21:13;13.78;;;2.17;;
28192;SDS011;15473;50.840;3.396;2022-09-09T07:23:44;15.35;;;2.25;;
28192;SDS011;15473;50.840;3.396;2022-09-09T07:26:20;10.68;;;2.30;;
28192;SDS011;15473;50.840;3.396;2022-09-09T07:28:50;11.00;;;1.92;;
28192;SDS011;15473;50.840;3.396;2022-09-09T07:31:21;7.17;;;2.00;;
28192;SDS011;15473;50.840;3.396;2022-09-09T07:34:01;9.15;;;2.27;;
28192;SDS011;15473;50.840;3.396;2022-09-09T07:36:33;9.78;;;2.25;;
28192;SDS011;15473;50.840;3.396;2022-09-09T07:39:26;8.98;;;1.95;;
28192;SDS011;15473;50.840;3.396;2022-09-09T07:41:56;11.60;;;2.52;;
28192;SDS011;15473;50.840;3.396;2022-09-09T07:44:27;8.55;;;2.15;;
28192;SDS011;15473;50.840;3.396;2022-09-09T07:46:58;7.72;;;2.02;;
28192;SDS011;15473;50.840;3.396;2022-09-09T07:49:28;11.33;;;3.27;;
28192;SDS011;15473;50.840;3.396;2022-09-09T07:51:58;6.45;;;1.92;;
28192;SDS011;15473;50.840;3.396;2022-09-09T07:54:28;7.70;;;1.95;;
28192;SDS011;15473;50.840;3.396;2022-09-09T07:57:00;7.83;;;2.10;;
28192;SDS011;15473;50.840;3.396;2022-09-09T07:59:32;10.25;;;2.12;;
28192;SDS011;15473;50.840;3.396;2022-09-09T08:02:02;8.15;;;2.22;;
28192;SDS011;15473;50.840;3.396;2022-09-09T08:04:32;8.73;;;2.08;;
28192;SDS011;15473;50.840;3.396;2022-09-09T08:07:03;9.05;;;2.52;;
28192;SDS011;15473;50.840;3.396;2022-09-09T08:09:33;8.50;;;1.77;;
28192;SDS011;15473;50.840;3.396;2022-09-09T08:12:03;5.85;;;1.70;;
28192;SDS011;15473;50.840;3.396;2022-09-09T08:14:34;6.58;;;1.87;;
28192;SDS011;15473;50.840;3.396;2022-09-09T08:17:04;3.85;;;1.72;;
28192;SDS011;15473;50.840;3.396;2022-09-09T08:19:35;4.15;;;1.67;;
28192;SDS011;15473;50.840;3.396;2022-09-09T08:22:05;7.97;;;1.70;;
28192;SDS011;15473;50.840;3.396;2022-09-09T08:24:56;9.45;;;2.20;;
28192;SDS011;15473;50.840;3.396;2022-09-09T08:27:26;8.23;;;1.90;;
28192;SDS011;15473;50.840;3.396;2022-09-09T08:29:56;7.95;;;1.85;;
28192;SDS011;15473;50.840;3.396;2022-09-09T08:32:27;4.97;;;1.55;;
28192;SDS011;15473;50.840;3.396;2022-09-09T08:34:57;9.85;;;2.00;;
28192;SDS011;15473;50.840;3.396;2022-09-09T08:37:27;5.80;;;1.90;;
28192;SDS011;15473;50.840;3.396;2022-09-09T08:39:57;6.90;;;2.47;;
28192;SDS011;15473;50.840;3.396;2022-09-09T08:42:40;4.58;;;1.70;;
28192;SDS011;15473;50.840;3.396;2022-09-09T08:48:27;3.55;;;2.08;;
28192;SDS011;15473;50.840;3.396;2022-09-09T08:51:00;4.83;;;2.25;;
28192;SDS011;15473;50.840;3.396;2022-09-09T08:53:38;8.85;;;2.27;;
28192;SDS011;15473;50.840;3.396;2022-09-09T08:56:09;7.53;;;2.45;;
28192;SDS011;15473;50.840;3.396;2022-09-09T08:59:00;7.67;;;2.17;;
28192;SDS011;15473;50.840;3.396;2022-09-09T09:04:42;5.12;;;2.02;;
28192;SDS011;15473;50.840;3.396;2022-09-09T09:12:38;4.20;;;1.80;;
28192;SDS011;15473;50.840;3.396;2022-09-09T09:15:21;4.42;;;1.37;;
28192;SDS011;15473;50.840;3.396;2022-09-09T09:17:45;3.50;;;1.57;;
28192;SDS011;15473;50.840;3.396;2022-09-09T09:20:18;4.70;;;1.87;;
28192;SDS011;15473;50.840;3.396;2022-09-09T09:22:53;5.15;;;1.75;;
28192;SDS011;15473;50.840;3.396;2022-09-09T09:25:35;8.63;;;2.40;;
28192;SDS011;15473;50.840;3.396;2022-09-09T09:31:05;6.53;;;2.08;;
28192;SDS011;15473;50.840;3.396;2022-09-09T09:33:47;4.95;;;1.77;;
28192;SDS011;15473;50.840;3.396;2022-09-09T09:36:19;4.15;;;1.40;;
28192;SDS011;15473;50.840;3.396;2022-09-09T09:38:52;4.85;;;1.70;;
28192;SDS011;15473;50.840;3.396;2022-09-09T09:41:42;2.83;;;1.22;;
28192;SDS011;15473;50.840;3.396;2022-09-09T09:47:04;6.65;;;1.70;;
28192;SDS011;15473;50.840;3.396;2022-09-09T09:49:39;5.47;;;1.40;;
28192;SDS011;15473;50.840;3.396;2022-09-09T09:52:12;3.92;;;1.50;;
28192;SDS011;15473;50.840;3.396;2022-09-09T09:54:43;4.53;;;1.55;;
28192;SDS011;15473;50.840;3.396;2022-09-09T09:57:14;2.42;;;1.12;;
28192;SDS011;15473;50.840;3.396;2022-09-09T09:59:47;4.12;;;1.60;;
28192;SDS011;15473;50.840;3.396;2022-09-09T10:05:13;4.08;;;1.40;;
28192;SDS011;15473;50.840;3.396;2022-09-09T10:08:02;5.83;;;1.52;;
28192;SDS011;15473;50.840;3.396;2022-09-09T10:13:34;4.53;;;1.42;;
28192;SDS011;15473;50.840;3.396;2022-09-09T10:27:11;3.30;;;1.07;;
28192;SDS011;15473;50.840;3.396;2022-09-09T10:35:47;3.35;;;1.32;;
28192;SDS011;15473;50.840;3.396;2022-09-09T10:38:40;3.62;;;1.30;;
28192;SDS011;15473;50.840;3.396;2022-09-09T10:41:19;2.50;;;1.27;;
28192;SDS011;15473;50.840;3.396;2022-09-09T10:44:15;1.85;;;1.02;;
28192;SDS011;15473;50.840;3.396;2022-09-09T10:55:59;2.67;;;1.57;;
28192;SDS011;15473;50.840;3.396;2022-09-09T11:01:20;2.37;;;1.27;;
28192;SDS011;15473;50.840;3.396;2022-09-09T11:03:53;3.33;;;1.20;;
28192;SDS011;15473;50.840;3.396;2022-09-09T11:06:34;3.62;;;1.00;;
28192;SDS011;15473;50.840;3.396;2022-09-09T11:09:01;5.45;;;1.30;;
28192;SDS011;15473;50.840;3.396;2022-09-09T11:11:35;3.40;;;1.00;;
28192;SDS011;15473;50.840;3.396;2022-09-09T11:14:26;3.00;;;1.32;;
28192;SDS011;15473;50.840;3.396;2022-09-09T11:16:57;1.82;;;1.05;;
28192;SDS011;15473;50.840;3.396;2022-09-09T11:19:42;3.10;;;1.10;;
28192;SDS011;15473;50.840;3.396;2022-09-09T11:25:02;3.75;;;1.20;;
28192;SDS011;15473;50.840;3.396;2022-09-09T11:27:51;4.22;;;1.55;;
28192;SDS011;15473;50.840;3.396;2022-09-09T11:30:22;3.33;;;0.65;;
28192;SDS011;15473;50.840;3.396;2022-09-09T11:33:27;3.50;;;1.07;;
28192;SDS011;15473;50.840;3.396;2022-09-09T11:44:51;1.52;;;1.20;;
28192;SDS011;15473;50.840;3.396;2022-09-09T11:47:24;4.03;;;1.35;;
28192;SDS011;15473;50.840;3.396;2022-09-09T11:50:26;1.85;;;1.20;;
28192;SDS011;15473;50.840;3.396;2022-09-09T11:52:47;1.95;;;1.37;;
28192;SDS011;15473;50.840;3.396;2022-09-09T11:55:28;4.05;;;1.32;;
28192;SDS011;15473;50.840;3.396;2022-09-09T12:00:41;6.50;;;1.77;;
28192;SDS011;15473;50.840;3.396;2022-09-09T12:09:08;3.58;;;1.55;;
28192;SDS011;15473;50.840;3.396;2022-09-09T12:11:43;3.35;;;1.32;;
28192;SDS011;15473;50.840;3.396;2022-09-09T12:14:34;2.50;;;1.45;;
28192;SDS011;15473;50.840;3.396;2022-09-09T12:19:47;1.57;;;1.15;;
28192;SDS011;15473;50.840;3.396;2022-09-09T12:25:01;2.87;;;1.72;;
28192;SDS011;15473;50.840;3.396;2022-09-09T12:27:34;1.12;;;1.02;;
28192;SDS011;15473;50.840;3.396;2022-09-09T12:30:19;2.27;;;1.32;;
28192;SDS011;15473;50.840;3.396;2022-09-09T12:32:58;3.20;;;1.52;;
28192;SDS011;15473;50.840;3.396;2022-09-09T12:35:30;4.62;;;1.40;;
28192;SDS011;15473;50.840;3.396;2022-09-09T12:38:01;3.05;;;1.30;;
28192;SDS011;15473;50.840;3.396;2022-09-09T12:40:33;3.95;;;1.40;;
28192;SDS011;15473;50.840;3.396;2022-09-09T12:43:17;1.47;;;1.10;;
28192;SDS011;15473;50.840;3.396;2022-09-09T12:45:50;3.47;;;1.27;;
28192;SDS011;15473;50.840;3.396;2022-09-09T12:48:28;5.43;;;1.30;;
28192;SDS011;15473;50.840;3.396;2022-09-09T12:51:03;2.58;;;1.32;;
28192;SDS011;15473;50.840;3.396;2022-09-09T12:53:37;3.47;;;1.57;;
28192;SDS011;15473;50.840;3.396;2022-09-09T12:56:09;4.65;;;1.20;;
28192;SDS011;15473;50.840;3.396;2022-09-09T12:58:44;2.75;;;1.40;;
28192;SDS011;15473;50.840;3.396;2022-09-09T13:01:33;3.10;;;1.40;;
28192;SDS011;15473;50.840;3.396;2022-09-09T13:04:15;1.95;;;0.90;;
28192;SDS011;15473;50.840;3.396;2022-09-09T13:06:37;4.05;;;1.62;;
28192;SDS011;15473;50.840;3.396;2022-09-09T13:09:08;1.87;;;1.22;;
28192;SDS011;15473;50.840;3.396;2022-09-09T13:11:39;6.90;;;1.87;;
28192;SDS011;15473;50.840;3.396;2022-09-09T13:14:19;1.92;;;1.27;;
28192;SDS011;15473;50.840;3.396;2022-09-09T13:16:54;5.67;;;1.47;;
28192;SDS011;15473;50.840;3.396;2022-09-09T13:19:26;3.25;;;1.32;;
28192;SDS011;15473;50.840;3.396;2022-09-09T13:21:59;6.08;;;1.30;;
28192;SDS011;15473;50.840;3.396;2022-09-09T13:24:32;3.87;;;1.20;;
28192;SDS011;15473;50.840;3.396;2022-09-09T13:27:04;4.05;;;1.45;;
28192;SDS011;15473;50.840;3.396;2022-09-09T13:29:36;4.58;;;1.45;;
28192;SDS011;15473;50.840;3.396;2022-09-09T13:32:17;4.90;;;1.60;;
28192;SDS011;15473;50.840;3.396;2022-09-09T13:34:55;3.27;;;1.20;;
28192;SDS011;15473;50.840;3.396;2022-09-09T13:37:32;3.47;;;1.62;;
28192;SDS011;15473;50.840;3.396;2022-09-09T13:40:06;2.55;;;1.30;;
28192;SDS011;15473;50.840;3.396;2022-09-09T13:42:50;3.70;;;1.30;;
28192;SDS011;15473;50.840;3.396;2022-09-09T13:45:24;7.00;;;1.65;;
28192;SDS011;15473;50.840;3.396;2022-09-09T13:47:55;5.40;;;1.45;;
28192;SDS011;15473;50.840;3.396;2022-09-09T13:50:27;5.80;;;1.50;;
28192;SDS011;15473;50.840;3.396;2022-09-09T13:52:58;5.17;;;1.50;;
28192;SDS011;15473;50.840;3.396;2022-09-09T13:55:29;1.98;;;1.22;;
28192;SDS011;15473;50.840;3.396;2022-09-09T13:58:02;5.40;;;1.45;;
28192;SDS011;15473;50.840;3.396;2022-09-09T14:00:34;2.58;;;1.50;;
28192;SDS011;15473;50.840;3.396;2022-09-09T14:03:04;8.70;;;1.50;;
28192;SDS011;15473;50.840;3.396;2022-09-09T14:05:35;3.45;;;1.52;;
28192;SDS011;15473;50.840;3.396;2022-09-09T14:08:06;4.15;;;1.32;;
28192;SDS011;15473;50.840;3.396;2022-09-09T14:10:36;4.28;;;1.35;;
28192;SDS011;15473;50.840;3.396;2022-09-09T14:13:06;1.90;;;1.22;;
28192;SDS011;15473;50.840;3.396;2022-09-09T14:15:36;6.85;;;1.50;;
28192;SDS011;15473;50.840;3.396;2022-09-09T14:18:09;5.28;;;1.37;;
28192;SDS011;15473;50.840;3.396;2022-09-09T14:20:40;4.62;;;1.45;;
28192;SDS011;15473;50.840;3.396;2022-09-09T14:23:11;2.55;;;1.32;;
28192;SDS011;15473;50.840;3.396;2022-09-09T14:25:42;2.47;;;1.10;;
28192;SDS011;15473;50.840;3.396;2022-09-09T14:28:12;5.85;;;1.65;;
28192;SDS011;15473;50.840;3.396;2022-09-09T14:30:43;3.10;;;0.90;;
28192;SDS011;15473;50.840;3.396;2022-09-09T14:33:14;2.75;;;1.35;;
28192;SDS011;15473;50.840;3.396;2022-09-09T14:35:45;3.20;;;0.75;;
28192;SDS011;15473;50.840;3.396;2022-09-09T14:38:15;4.83;;;1.00;;
28192;SDS011;15473;50.840;3.396;2022-09-09T14:40:46;4.12;;;1.15;;
28192;SDS011;15473;50.840;3.396;2022-09-09T14:43:16;3.72;;;1.27;;
28192;SDS011;15473;50.840;3.396;2022-09-09T14:45:46;1.65;;;1.00;;
28192;SDS011;15473;50.840;3.396;2022-09-09T14:48:16;3.22;;;0.98;;
28192;SDS011;15473;50.840;3.396;2022-09-09T14:50:46;5.72;;;1.22;;
28192;SDS011;15473;50.840;3.396;2022-09-09T14:53:17;3.52;;;1.70;;
28192;SDS011;15473;50.840;3.396;2022-09-09T14:55:47;7.95;;;1.95;;
28192;SDS011;15473;50.840;3.396;2022-09-09T14:58:18;2.72;;;1.87;;
28192;SDS011;15473;50.840;3.396;2022-09-09T15:00:48;3.15;;;1.22;;
28192;SDS011;15473;50.840;3.396;2022-09-09T15:03:18;6.87;;;1.82;;
28192;SDS011;15473;50.840;3.396;2022-09-09T15:05:50;4.00;;;1.42;;
28192;SDS011;15473;50.840;3.396;2022-09-09T15:08:20;8.60;;;1.75;;
28192;SDS011;15473;50.840;3.396;2022-09-09T15:10:59;1.65;;;1.55;;
28192;SDS011;15473;50.840;3.396;2022-09-09T15:13:35;4.10;;;1.85;;
28192;SDS011;15473;50.840;3.396;2022-09-09T15:16:06;3.00;;;1.70;;
28192;SDS011;15473;50.840;3.396;2022-09-09T15:18:38;1.40;;;1.30;;
28192;SDS011;15473;50.840;3.396;2022-09-09T15:21:12;3.42;;;1.40;;
28192;SDS011;15473;50.840;3.396;2022-09-09T15:23:44;4.22;;;1.60;;
28192;SDS011;15473;50.840;3.396;2022-09-09T15:26:15;1.07;;;0.95;;
28192;SDS011;15473;50.840;3.396;2022-09-09T15:31:36;2.15;;;0.90;;
28192;SDS011;15473;50.840;3.396;2022-09-09T15:34:07;1.67;;;0.50;;
28192;SDS011;15473;50.840;3.396;2022-09-09T15:36:38;0.57;;;0.50;;
28192;SDS011;15473;50.840;3.396;2022-09-09T15:39:11;3.95;;;0.65;;
28192;SDS011;15473;50.840;3.396;2022-09-09T15:41:44;6.85;;;1.12;;
28192;SDS011;15473;50.840;3.396;2022-09-09T15:44:15;1.32;;;0.60;;
28192;SDS011;15473;50.840;3.396;2022-09-09T15:46:50;0.72;;;0.50;;
28192;SDS011;15473;50.840;3.396;2022-09-09T15:49:23;6.10;;;1.22;;
28192;SDS011;15473;50.840;3.396;2022-09-09T15:51:58;2.33;;;1.10;;
28192;SDS011;15473;50.840;3.396;2022-09-09T15:54:31;4.30;;;1.20;;
28192;SDS011;15473;50.840;3.396;2022-09-09T15:57:03;3.42;;;1.87;;
28192;SDS011;15473;50.840;3.396;2022-09-09T15:59:35;5.45;;;1.60;;
28192;SDS011;15473;50.840;3.396;2022-09-09T16:02:05;5.03;;;1.52;;
28192;SDS011;15473;50.840;3.396;2022-09-09T16:04:35;5.30;;;1.75;;
28192;SDS011;15473;50.840;3.396;2022-09-09T16:07:05;4.20;;;2.08;;
28192;SDS011;15473;50.840;3.396;2022-09-09T16:09:36;8.35;;;2.85;;
28192;SDS011;15473;50.840;3.396;2022-09-09T16:12:06;6.42;;;2.12;;
28192;SDS011;15473;50.840;3.396;2022-09-09T16:14:38;4.37;;;2.08;;
28192;SDS011;15473;50.840;3.396;2022-09-09T16:17:08;8.60;;;2.10;;
28192;SDS011;15473;50.840;3.396;2022-09-09T16:19:39;4.00;;;1.37;;
28192;SDS011;15473;50.840;3.396;2022-09-09T16:22:09;3.33;;;1.32;;
28192;SDS011;15473;50.840;3.396;2022-09-09T16:24:41;3.67;;;1.12;;
28192;SDS011;15473;50.840;3.396;2022-09-09T16:27:13;4.35;;;1.07;;
28192;SDS011;15473;50.840;3.396;2022-09-09T16:29:43;4.50;;;1.22;;
28192;SDS011;15473;50.840;3.396;2022-09-09T16:32:13;2.75;;;1.02;;
28192;SDS011;15473;50.840;3.396;2022-09-09T16:34:43;6.05;;;1.07;;
28192;SDS011;15473;50.840;3.396;2022-09-09T16:37:14;4.87;;;1.32;;
28192;SDS011;15473;50.840;3.396;2022-09-09T16:39:44;6.03;;;1.30;;
28192;SDS011;15473;50.840;3.396;2022-09-09T16:42:14;4.00;;;1.20;;
28192;SDS011;15473;50.840;3.396;2022-09-09T16:44:45;3.22;;;1.40;;
28192;SDS011;15473;50.840;3.396;2022-09-09T16:47:17;5.67;;;1.10;;
28192;SDS011;15473;50.840;3.396;2022-09-09T16:49:47;2.55;;;1.05;;
28192;SDS011;15473;50.840;3.396;2022-09-09T16:52:17;5.30;;;1.20;;
28192;SDS011;15473;50.840;3.396;2022-09-09T16:54:47;5.15;;;0.93;;
28192;SDS011;15473;50.840;3.396;2022-09-09T16:57:17;2.75;;;0.88;;
28192;SDS011;15473;50.840;3.396;2022-09-09T16:59:47;3.75;;;1.15;;
28192;SDS011;15473;50.840;3.396;2022-09-09T17:02:18;5.10;;;1.20;;
28192;SDS011;15473;50.840;3.396;2022-09-09T17:04:48;8.23;;;1.47;;
28192;SDS011;15473;50.840;3.396;2022-09-09T17:07:19;7.20;;;1.50;;
28192;SDS011;15473;50.840;3.396;2022-09-09T17:09:49;7.53;;;1.45;;
28192;SDS011;15473;50.840;3.396;2022-09-09T17:12:19;3.50;;;1.42;;
28192;SDS011;15473;50.840;3.396;2022-09-09T17:14:49;11.28;;;1.70;;
28192;SDS011;15473;50.840;3.396;2022-09-09T17:17:19;10.98;;;1.90;;
28192;SDS011;15473;50.840;3.396;2022-09-09T17:19:49;6.50;;;1.32;;
28192;SDS011;15473;50.840;3.396;2022-09-09T17:22:20;10.23;;;1.70;;
28192;SDS011;15473;50.840;3.396;2022-09-09T17:24:51;6.45;;;1.57;;
28192;SDS011;15473;50.840;3.396;2022-09-09T17:27:21;6.37;;;1.52;;
28192;SDS011;15473;50.840;3.396;2022-09-09T17:29:51;7.53;;;1.60;;